N258PW KAVP-KLNS
Flight info
| Callsign | N258PW |
|---|---|
| Flight time | 0h 34m |
| Altitude | 16000 |
| Route | LVZ ETX LRP |
| Aircraft | B58T/L-SDFGRY/C |
Departure
| Time | 2026-04-25 18:22 |
|---|---|
| Airport | Wilkes-Barre/Scranton International Airport (KAVP) |
Arrival
| Time | 2026-04-25 18:57 |
|---|---|
| Airport | Lancaster Airport (KLNS) |
| Time | Latitude | Longitude | Altitude | Speed | Heading |
|---|---|---|---|---|---|
| 2026-04-25 18:08 | 41.33665 | -75.72814 | 940 ft | 0 kts | 338° |
| 2026-04-25 18:19 | 41.33683 | -75.72809 | 939 ft | 10 kts | 55° |
| 2026-04-25 18:19 | 41.33717 | -75.72721 | 939 ft | 10 kts | 52° |
| 2026-04-25 18:19 | 41.33771 | -75.72645 | 937 ft | 12 kts | 38° |
| 2026-04-25 18:20 | 41.33859 | -75.72663 | 930 ft | 16 kts | 303° |
| 2026-04-25 18:20 | 41.33919 | -75.72787 | 925 ft | 19 kts | 304° |
| 2026-04-25 18:20 | 41.34011 | -75.72904 | 920 ft | 15 kts | 332° |
| 2026-04-25 18:20 | 41.34064 | -75.72896 | 922 ft | 7 kts | 78° |
| 2026-04-25 18:21 | 41.34064 | -75.72890 | 921 ft | 0 kts | 91° |
| 2026-04-25 18:21 | 41.34064 | -75.72881 | 921 ft | 12 kts | 92° |
| 2026-04-25 18:21 | 41.34048 | -75.72373 | 931 ft | 91 kts | 94° |
| 2026-04-25 18:21 | 41.34046 | -75.71390 | 1114 ft | 118 kts | 90° |
| 2026-04-25 18:22 | 41.34040 | -75.70216 | 1423 ft | 132 kts | 89° |
| 2026-04-25 18:22 | 41.34046 | -75.69801 | 1558 ft | 133 kts | 86° |
| 2026-04-25 18:22 | 41.34232 | -75.67762 | 2351 ft | 131 kts | 85° |
| 2026-04-25 18:22 | 41.34408 | -75.66617 | 2834 ft | 122 kts | 84° |
| 2026-04-25 18:23 | 41.34598 | -75.65540 | 3145 ft | 117 kts | 97° |
| 2026-04-25 18:23 | 41.34207 | -75.64691 | 3419 ft | 117 kts | 155° |
| 2026-04-25 18:23 | 41.33348 | -75.64742 | 3690 ft | 131 kts | 189° |
| 2026-04-25 18:23 | 41.32469 | -75.65033 | 3970 ft | 130 kts | 189° |
| 2026-04-25 18:24 | 41.31576 | -75.65277 | 4238 ft | 131 kts | 189° |
| 2026-04-25 18:24 | 41.30681 | -75.65481 | 4505 ft | 131 kts | 190° |
| 2026-04-25 18:24 | 41.29780 | -75.65644 | 4775 ft | 130 kts | 189° |
| 2026-04-25 18:24 | 41.28885 | -75.65760 | 5030 ft | 129 kts | 189° |
| 2026-04-25 18:25 | 41.27994 | -75.65857 | 5275 ft | 128 kts | 189° |
| 2026-04-25 18:25 | 41.27108 | -75.65935 | 5520 ft | 128 kts | 189° |
| 2026-04-25 18:25 | 41.26213 | -75.66001 | 5774 ft | 130 kts | 189° |
| 2026-04-25 18:25 | 41.25300 | -75.66049 | 6031 ft | 133 kts | 189° |
| 2026-04-25 18:26 | 41.24369 | -75.66085 | 6281 ft | 135 kts | 189° |
| 2026-04-25 18:26 | 41.23423 | -75.66113 | 6530 ft | 137 kts | 189° |
| 2026-04-25 18:26 | 41.22461 | -75.66139 | 6773 ft | 139 kts | 189° |
| 2026-04-25 18:26 | 41.21501 | -75.66242 | 7020 ft | 138 kts | 196° |
| 2026-04-25 18:27 | 41.20555 | -75.66461 | 7262 ft | 138 kts | 197° |
| 2026-04-25 18:27 | 41.19605 | -75.66680 | 7509 ft | 139 kts | 197° |
| 2026-04-25 18:27 | 41.18655 | -75.66919 | 7755 ft | 138 kts | 202° |
| 2026-04-25 18:27 | 41.17752 | -75.67348 | 8006 ft | 138 kts | 207° |
| 2026-04-25 18:28 | 41.16854 | -75.67799 | 8257 ft | 138 kts | 207° |
| 2026-04-25 18:28 | 41.15954 | -75.68253 | 8510 ft | 139 kts | 207° |
| 2026-04-25 18:28 | 41.15041 | -75.68682 | 8764 ft | 141 kts | 200° |
| 2026-04-25 18:29 | 41.12966 | -75.68824 | 9311 ft | 158 kts | 188° |
| 2026-04-25 18:29 | 41.11857 | -75.68820 | 9578 ft | 159 kts | 187° |
| 2026-04-25 18:30 | 41.08570 | -75.68793 | 10493 ft | 152 kts | 189° |
| 2026-04-25 18:30 | 41.07522 | -75.68784 | 10843 ft | 149 kts | 189° |
| 2026-04-25 18:30 | 41.06496 | -75.68774 | 11193 ft | 146 kts | 189° |
| 2026-04-25 18:30 | 41.05489 | -75.68768 | 11555 ft | 144 kts | 190° |
| 2026-04-25 18:31 | 41.04494 | -75.68760 | 11919 ft | 142 kts | 190° |
| 2026-04-25 18:31 | 41.03509 | -75.68752 | 12273 ft | 141 kts | 190° |
| 2026-04-25 18:31 | 41.02529 | -75.68745 | 12622 ft | 140 kts | 190° |
| 2026-04-25 18:31 | 41.01558 | -75.68737 | 12975 ft | 139 kts | 190° |
| 2026-04-25 18:32 | 41.00589 | -75.68731 | 13303 ft | 140 kts | 191° |
| 2026-04-25 18:32 | 40.99611 | -75.68725 | 13607 ft | 142 kts | 190° |
| 2026-04-25 18:32 | 40.98610 | -75.68718 | 13870 ft | 145 kts | 190° |
| 2026-04-25 18:32 | 40.97589 | -75.68709 | 14108 ft | 147 kts | 190° |
| 2026-04-25 18:33 | 40.96560 | -75.68701 | 14345 ft | 149 kts | 190° |
| 2026-04-25 18:33 | 40.95523 | -75.68692 | 14583 ft | 149 kts | 190° |
| 2026-04-25 18:33 | 40.94484 | -75.68684 | 14822 ft | 150 kts | 190° |
| 2026-04-25 18:33 | 40.93441 | -75.68677 | 15061 ft | 150 kts | 190° |
| 2026-04-25 18:34 | 40.92400 | -75.68668 | 15306 ft | 150 kts | 191° |
| 2026-04-25 18:34 | 40.91359 | -75.68660 | 15553 ft | 149 kts | 191° |
| 2026-04-25 18:34 | 40.90310 | -75.68650 | 15758 ft | 152 kts | 191° |
| 2026-04-25 18:34 | 40.89249 | -75.68644 | 15955 ft | 153 kts | 191° |
| 2026-04-25 18:35 | 40.88149 | -75.68641 | 16011 ft | 163 kts | 190° |
| 2026-04-25 18:35 | 40.86981 | -75.68634 | 16020 ft | 172 kts | 189° |
| 2026-04-25 18:35 | 40.86179 | -75.68626 | 16015 ft | 176 kts | 189° |
| 2026-04-25 18:35 | 40.84507 | -75.68609 | 16020 ft | 182 kts | 189° |
| 2026-04-25 18:36 | 40.83230 | -75.68598 | 16020 ft | 185 kts | 189° |
| 2026-04-25 18:36 | 40.81938 | -75.68586 | 16022 ft | 186 kts | 189° |
| 2026-04-25 18:36 | 40.81081 | -75.68578 | 16021 ft | 186 kts | 189° |
| 2026-04-25 18:36 | 40.79779 | -75.68569 | 16007 ft | 187 kts | 189° |
| 2026-04-25 18:37 | 40.78480 | -75.68558 | 16034 ft | 186 kts | 189° |
| 2026-04-25 18:37 | 40.77187 | -75.68547 | 16039 ft | 187 kts | 189° |
| 2026-04-25 18:37 | 40.75880 | -75.68536 | 16039 ft | 187 kts | 189° |
| 2026-04-25 18:37 | 40.74585 | -75.68525 | 16031 ft | 185 kts | 189° |
| 2026-04-25 18:38 | 40.73293 | -75.68520 | 16043 ft | 187 kts | 189° |
| 2026-04-25 18:38 | 40.71980 | -75.68508 | 16047 ft | 191 kts | 188° |
| 2026-04-25 18:38 | 40.70640 | -75.68499 | 16053 ft | 194 kts | 189° |
| 2026-04-25 18:38 | 40.69283 | -75.68491 | 16042 ft | 196 kts | 188° |
| 2026-04-25 18:39 | 40.67910 | -75.68480 | 16065 ft | 198 kts | 188° |
| 2026-04-25 18:39 | 40.66524 | -75.68468 | 16054 ft | 200 kts | 188° |
| 2026-04-25 18:39 | 40.65131 | -75.68457 | 16057 ft | 200 kts | 188° |
| 2026-04-25 18:39 | 40.63735 | -75.68446 | 15971 ft | 204 kts | 188° |
| 2026-04-25 18:40 | 40.62281 | -75.68440 | 15732 ft | 213 kts | 188° |
| 2026-04-25 18:40 | 40.60778 | -75.68428 | 15498 ft | 218 kts | 187° |
| 2026-04-25 18:40 | 40.59261 | -75.68471 | 15255 ft | 217 kts | 195° |
| 2026-04-25 18:40 | 40.57866 | -75.69082 | 15029 ft | 209 kts | 214° |
| 2026-04-25 18:41 | 40.56744 | -75.70202 | 14800 ft | 203 kts | 230° |
| 2026-04-25 18:41 | 40.55756 | -75.71533 | 14566 ft | 203 kts | 230° |
| 2026-04-25 18:41 | 40.54757 | -75.72854 | 14325 ft | 204 kts | 229° |
| 2026-04-25 18:41 | 40.53762 | -75.74171 | 14090 ft | 203 kts | 230° |
| 2026-04-25 18:42 | 40.52770 | -75.75489 | 13853 ft | 202 kts | 229° |
| 2026-04-25 18:42 | 40.52104 | -75.76374 | 13676 ft | 202 kts | 230° |
| 2026-04-25 18:42 | 40.50786 | -75.78123 | 13322 ft | 201 kts | 230° |
| 2026-04-25 18:42 | 40.49808 | -75.79421 | 13069 ft | 199 kts | 230° |
| 2026-04-25 18:43 | 40.48848 | -75.80691 | 12815 ft | 198 kts | 230° |
| 2026-04-25 18:43 | 40.47884 | -75.81969 | 12556 ft | 196 kts | 230° |
| 2026-04-25 18:43 | 40.46925 | -75.83239 | 12286 ft | 195 kts | 229° |
| 2026-04-25 18:43 | 40.45962 | -75.84515 | 12030 ft | 194 kts | 229° |
| 2026-04-25 18:44 | 40.45026 | -75.85753 | 11778 ft | 193 kts | 229° |
| 2026-04-25 18:44 | 40.44086 | -75.86996 | 11531 ft | 192 kts | 229° |
| 2026-04-25 18:44 | 40.43138 | -75.88249 | 11279 ft | 190 kts | 229° |
| 2026-04-25 18:44 | 40.42210 | -75.89476 | 11032 ft | 189 kts | 229° |
| 2026-04-25 18:45 | 40.41291 | -75.90692 | 10801 ft | 191 kts | 229° |
| 2026-04-25 18:45 | 40.40344 | -75.91942 | 10559 ft | 195 kts | 229° |
| 2026-04-25 18:45 | 40.39379 | -75.93217 | 10314 ft | 197 kts | 229° |
| 2026-04-25 18:45 | 40.38422 | -75.94478 | 10069 ft | 194 kts | 229° |
| 2026-04-25 18:46 | 40.37476 | -75.95725 | 9822 ft | 192 kts | 229° |
| 2026-04-25 18:46 | 40.36538 | -75.96961 | 9559 ft | 191 kts | 228° |
| 2026-04-25 18:46 | 40.35604 | -75.98191 | 9294 ft | 190 kts | 228° |
| 2026-04-25 18:46 | 40.34676 | -75.99414 | 9038 ft | 189 kts | 228° |
| 2026-04-25 18:47 | 40.33749 | -76.00634 | 8780 ft | 189 kts | 228° |
| 2026-04-25 18:47 | 40.32824 | -76.01852 | 8526 ft | 188 kts | 228° |
| 2026-04-25 18:47 | 40.31899 | -76.03069 | 8274 ft | 188 kts | 228° |
| 2026-04-25 18:47 | 40.30965 | -76.04298 | 8021 ft | 188 kts | 228° |
| 2026-04-25 18:48 | 40.30051 | -76.05500 | 7775 ft | 188 kts | 228° |
| 2026-04-25 18:48 | 40.29130 | -76.06708 | 7529 ft | 187 kts | 227° |
| 2026-04-25 18:48 | 40.28209 | -76.07918 | 7274 ft | 188 kts | 227° |
| 2026-04-25 18:48 | 40.27286 | -76.09131 | 7038 ft | 188 kts | 227° |
| 2026-04-25 18:49 | 40.26357 | -76.10349 | 6803 ft | 189 kts | 226° |
| 2026-04-25 18:49 | 40.25429 | -76.11568 | 6560 ft | 189 kts | 226° |
| 2026-04-25 18:49 | 40.24503 | -76.12781 | 6300 ft | 189 kts | 226° |
| 2026-04-25 18:49 | 40.23577 | -76.13995 | 6045 ft | 188 kts | 226° |
| 2026-04-25 18:50 | 40.22651 | -76.15208 | 5795 ft | 188 kts | 226° |
| 2026-04-25 18:50 | 40.21731 | -76.16414 | 5541 ft | 187 kts | 225° |
| 2026-04-25 18:50 | 40.20814 | -76.17616 | 5292 ft | 186 kts | 224° |
| 2026-04-25 18:50 | 40.19901 | -76.18809 | 5049 ft | 185 kts | 224° |
| 2026-04-25 18:51 | 40.19016 | -76.20020 | 4793 ft | 184 kts | 231° |
| 2026-04-25 18:51 | 40.18645 | -76.21024 | 4627 ft | 187 kts | 246° |
| 2026-04-25 18:51 | 40.18171 | -76.23222 | 4283 ft | 190 kts | 249° |
| 2026-04-25 18:51 | 40.17847 | -76.24901 | 4028 ft | 189 kts | 249° |
| 2026-04-25 18:52 | 40.17559 | -76.26502 | 3759 ft | 172 kts | 249° |
| 2026-04-25 18:52 | 40.17313 | -76.27983 | 3491 ft | 162 kts | 249° |
| 2026-04-25 18:52 | 40.17097 | -76.29408 | 3220 ft | 158 kts | 249° |
| 2026-04-25 18:52 | 40.16890 | -76.30822 | 2948 ft | 159 kts | 249° |
| 2026-04-25 18:53 | 40.16671 | -76.32239 | 2677 ft | 159 kts | 247° |
| 2026-04-25 18:53 | 40.16360 | -76.33616 | 2504 ft | 154 kts | 244° |
| 2026-04-25 18:53 | 40.16062 | -76.34916 | 2497 ft | 148 kts | 245° |
| 2026-04-25 18:53 | 40.15752 | -76.36219 | 2499 ft | 151 kts | 245° |
| 2026-04-25 18:54 | 40.14401 | -76.37764 | 2122 ft | 128 kts | 166° |
| 2026-04-25 18:54 | 40.13554 | -76.37522 | 1855 ft | 122 kts | 159° |
| 2026-04-25 18:54 | 40.12788 | -76.37094 | 1582 ft | 120 kts | 146° |
| 2026-04-25 18:55 | 40.12139 | -76.36426 | 1319 ft | 120 kts | 129° |
| 2026-04-25 18:55 | 40.11733 | -76.35484 | 1288 ft | 122 kts | 110° |
| 2026-04-25 18:55 | 40.11445 | -76.34421 | 1156 ft | 123 kts | 110° |
| 2026-04-25 18:55 | 40.11333 | -76.33413 | 1037 ft | 102 kts | 92° |
| 2026-04-25 18:56 | 40.11424 | -76.32539 | 816 ft | 93 kts | 82° |
| 2026-04-25 18:56 | 40.11605 | -76.31748 | 671 ft | 91 kts | 76° |
| 2026-04-25 18:56 | 40.11838 | -76.30951 | 538 ft | 94 kts | 74° |
| 2026-04-25 18:56 | 40.12052 | -76.30219 | 402 ft | 75 kts | 75° |
| 2026-04-25 18:57 | 40.12191 | -76.29752 | 393 ft | 23 kts | 70° |
| 2026-04-25 18:57 | 40.12187 | -76.29658 | 394 ft | 6 kts | 148° |
| 2026-04-25 18:57 | 40.12158 | -76.29641 | 395 ft | 5 kts | 156° |
| 2026-04-25 18:57 | 40.12148 | -76.29635 | 395 ft | 5 kts | 156° |
| 2026-04-25 18:58 | 40.12088 | -76.29714 | 395 ft | 12 kts | 243° |
| 2026-04-25 18:58 | 40.11993 | -76.29935 | 395 ft | 11 kts | 221° |
| 2026-04-25 18:58 | 40.11944 | -76.29989 | 395 ft | 7 kts | 239° |
| 2026-04-25 18:59 | 40.11949 | -76.30028 | 395 ft | 0 kts | 350° |